createdAt,value
2022-11-30T00:00:56.300Z,6.03
2022-11-30T00:01:58.794Z,5.55
2022-11-30T00:03:01.321Z,5.25
2022-11-30T00:04:03.746Z,5.63
2022-11-30T00:05:06.510Z,5.30
2022-11-30T00:06:12.042Z,5.45
2022-11-30T00:07:14.334Z,5.85
2022-11-30T00:08:16.882Z,6.45
2022-11-30T00:09:19.202Z,6.72
2022-11-30T00:10:22.603Z,6.65
2022-11-30T00:11:26.916Z,6.13
2022-11-30T00:12:29.448Z,6.80
2022-11-30T00:13:31.697Z,6.68
2022-11-30T00:14:34.062Z,5.35
2022-11-30T00:15:37.775Z,5.82
2022-11-30T00:16:40.094Z,5.63
2022-11-30T00:17:46.061Z,5.82
2022-11-30T00:18:48.523Z,5.90
2022-11-30T00:19:50.854Z,5.20
2022-11-30T00:20:53.124Z,5.30
2022-11-30T00:21:55.554Z,4.95
2022-11-30T00:22:57.873Z,5.85
2022-11-30T00:24:00.213Z,5.90
2022-11-30T00:25:04.604Z,5.80
2022-11-30T00:26:18.211Z,5.93
2022-11-30T00:27:20.509Z,5.80
2022-11-30T00:28:22.822Z,5.57
2022-11-30T00:29:25.101Z,5.68
2022-11-30T00:30:27.442Z,5.75
2022-11-30T00:31:29.709Z,5.88
2022-11-30T00:32:32.210Z,5.90
2022-11-30T00:33:36.731Z,5.38
2022-11-30T00:34:38.997Z,5.50
2022-11-30T00:35:41.273Z,5.72
2022-11-30T00:36:43.544Z,5.85
2022-11-30T00:37:45.829Z,5.47
2022-11-30T00:38:48.993Z,6.07
2022-11-30T00:39:51.813Z,6.07
2022-11-30T00:40:54.286Z,5.75
2022-11-30T00:41:56.605Z,5.32
2022-11-30T00:42:58.905Z,5.45
2022-11-30T00:44:01.287Z,5.93
2022-11-30T00:45:03.918Z,5.50
2022-11-30T00:46:09.174Z,6.07
2022-11-30T00:47:11.589Z,5.57
2022-11-30T00:48:13.904Z,5.03
2022-11-30T00:49:16.954Z,5.20
2022-11-30T00:50:19.272Z,5.90
2022-11-30T00:51:21.644Z,5.97
2022-11-30T00:52:23.895Z,6.90
2022-11-30T00:53:26.328Z,5.78
2022-11-30T00:54:28.577Z,6.18
2022-11-30T00:55:32.696Z,5.28
2022-11-30T00:56:34.960Z,5.93
2022-11-30T00:57:37.248Z,6.40
2022-11-30T00:58:40.472Z,5.72
2022-11-30T00:59:42.744Z,5.15
2022-11-30T01:00:45.090Z,6.20
2022-11-30T01:01:47.429Z,6.50
2022-11-30T01:02:56.998Z,6.07
2022-11-30T01:03:59.370Z,5.93
2022-11-30T01:05:02.034Z,5.78
2022-11-30T01:06:06.404Z,6.40
2022-11-30T01:07:08.719Z,6.55
2022-11-30T01:08:12.647Z,6.35
2022-11-30T01:09:14.968Z,5.90
2022-11-30T01:10:17.794Z,6.30
2022-11-30T01:11:28.921Z,6.47
2022-11-30T01:12:31.191Z,5.75
2022-11-30T01:13:33.526Z,5.47
2022-11-30T01:14:35.801Z,6.03
2022-11-30T01:15:42.767Z,5.95
2022-11-30T01:16:45.128Z,6.18
2022-11-30T01:17:47.423Z,6.55
2022-11-30T01:18:50.432Z,7.03
2022-11-30T01:19:52.720Z,6.18
2022-11-30T01:20:55.102Z,6.28
2022-11-30T01:21:57.451Z,6.78
2022-11-30T01:22:59.798Z,6.22
2022-11-30T01:24:02.263Z,6.00
2022-11-30T01:25:04.941Z,6.30
2022-11-30T01:26:08.245Z,5.90
2022-11-30T01:27:10.588Z,6.10
2022-11-30T01:28:12.897Z,6.13
2022-11-30T01:29:15.194Z,6.28
2022-11-30T01:30:18.654Z,5.82
2022-11-30T01:31:23.792Z,5.88
2022-11-30T01:32:26.206Z,6.28
2022-11-30T01:33:28.537Z,7.15
2022-11-30T01:34:30.846Z,51.85
2022-11-30T01:35:33.169Z,42.42
2022-11-30T01:36:36.344Z,43.83
2022-11-30T01:37:38.657Z,36.92
2022-11-30T01:38:47.409Z,31.67
2022-11-30T01:39:50.904Z,23.27
2022-11-30T01:40:53.248Z,20.20
2022-11-30T01:41:55.611Z,15.95
2022-11-30T01:42:57.949Z,14.20
2022-11-30T01:44:05.982Z,12.00
2022-11-30T01:45:12.482Z,12.27
2022-11-30T01:46:38.424Z,11.77
2022-11-30T01:47:53.499Z,11.70
2022-11-30T01:49:12.362Z,10.90
2022-11-30T01:50:27.295Z,11.10
2022-11-30T01:51:39.023Z,10.43
2022-11-30T01:53:45.957Z,9.25
2022-11-30T01:54:55.984Z,10.00
2022-11-30T01:55:58.309Z,9.95
2022-11-30T01:57:06.398Z,10.13
2022-11-30T01:58:16.660Z,9.40
2022-11-30T01:59:22.185Z,9.40
2022-11-30T02:00:24.765Z,10.05
2022-11-30T02:01:27.492Z,11.38
2022-11-30T02:02:38.086Z,10.82
2022-11-30T02:03:49.794Z,9.90
2022-11-30T02:04:52.149Z,10.88
2022-11-30T02:05:54.737Z,25.35
2022-11-30T02:06:58.460Z,52.15
2022-11-30T02:08:01.401Z,24.30
2022-11-30T02:09:03.901Z,18.42
2022-11-30T02:10:07.207Z,19.13
2022-11-30T02:11:14.069Z,16.48
2022-11-30T02:12:28.738Z,16.38
2022-11-30T02:13:45.070Z,13.95
2022-11-30T02:14:50.939Z,12.10
2022-11-30T02:16:19.157Z,11.65
2022-11-30T02:17:52.181Z,11.52
2022-11-30T02:19:21.881Z,11.98
2022-11-30T02:20:32.979Z,11.57
2022-11-30T02:21:52.032Z,11.95
2022-11-30T02:23:25.663Z,11.38
2022-11-30T02:24:50.786Z,11.68
2022-11-30T02:26:22.743Z,11.68
2022-11-30T02:28:12.413Z,10.90
2022-11-30T02:29:25.936Z,10.55
2022-11-30T02:30:30.251Z,11.05
2022-11-30T02:31:50.839Z,10.93
2022-11-30T02:33:02.942Z,10.70
2022-11-30T02:34:08.536Z,9.82
2022-11-30T02:35:12.765Z,10.38
2022-11-30T02:36:15.870Z,10.32
2022-11-30T02:37:19.481Z,10.05
2022-11-30T02:38:24.459Z,9.80
2022-11-30T02:39:28.462Z,9.63
2022-11-30T02:40:30.774Z,9.98
2022-11-30T02:41:38.247Z,10.38
2022-11-30T02:42:40.776Z,9.75
2022-11-30T02:43:43.241Z,10.13
2022-11-30T02:44:49.258Z,9.45
2022-11-30T02:46:05.802Z,10.13
2022-11-30T02:47:29.671Z,20.17
2022-11-30T02:48:46.114Z,10.43
2022-11-30T02:50:00.410Z,10.32
2022-11-30T02:51:06.549Z,9.00
2022-11-30T02:52:11.132Z,10.20
2022-11-30T02:53:13.602Z,8.85
2022-11-30T02:54:17.590Z,8.90
2022-11-30T02:55:20.671Z,8.23
2022-11-30T02:56:24.327Z,8.95
2022-11-30T02:57:26.661Z,7.88
2022-11-30T02:58:28.936Z,8.13
2022-11-30T02:59:31.436Z,8.27
2022-11-30T03:00:33.725Z,8.98
2022-11-30T03:01:36.501Z,7.97
2022-11-30T03:02:40.086Z,7.85
2022-11-30T03:03:42.529Z,8.27
2022-11-30T03:04:45.135Z,7.50
2022-11-30T03:05:47.671Z,7.78
2022-11-30T03:06:49.946Z,8.23
2022-11-30T03:07:52.323Z,7.82
2022-11-30T03:08:54.742Z,7.40
2022-11-30T03:09:57.250Z,8.30
2022-11-30T03:11:06.355Z,7.53
2022-11-30T03:12:08.634Z,7.65
2022-11-30T03:13:10.925Z,7.72
2022-11-30T03:14:13.259Z,8.18
2022-11-30T03:15:15.661Z,6.80
2022-11-30T03:16:18.009Z,7.60
2022-11-30T03:17:20.358Z,7.47
2022-11-30T03:18:22.673Z,7.03
2022-11-30T03:19:25.049Z,7.40
2022-11-30T03:20:27.334Z,7.50
2022-11-30T03:21:29.729Z,7.53
2022-11-30T03:22:32.063Z,6.90
2022-11-30T03:23:35.549Z,6.88
2022-11-30T03:24:37.816Z,6.72
2022-11-30T03:25:40.155Z,7.00
2022-11-30T03:26:42.486Z,6.97
2022-11-30T03:27:44.826Z,32.65
2022-11-30T03:28:47.142Z,37.70
2022-11-30T03:29:49.420Z,39.03
2022-11-30T03:30:51.868Z,56.90
2022-11-30T03:31:54.219Z,136.38
2022-11-30T03:32:56.590Z,96.57
2022-11-30T03:33:59.071Z,98.28
2022-11-30T03:35:01.400Z,79.40
2022-11-30T03:36:06.683Z,78.32
2022-11-30T03:37:08.983Z,55.63
2022-11-30T03:38:11.608Z,45.65
2022-11-30T03:39:13.886Z,42.50
2022-11-30T03:40:16.324Z,38.70
2022-11-30T03:41:18.766Z,39.63
2022-11-30T03:42:21.059Z,30.40
2022-11-30T03:43:23.298Z,26.80
2022-11-30T03:44:25.618Z,26.95
2022-11-30T03:45:27.935Z,24.77
2022-11-30T03:46:30.313Z,22.63
2022-11-30T03:47:32.657Z,21.17
2022-11-30T03:48:38.876Z,24.02
2022-11-30T03:49:41.126Z,22.65
2022-11-30T03:50:49.466Z,21.33
2022-11-30T03:51:51.739Z,19.95
2022-11-30T03:52:54.090Z,20.88
2022-11-30T03:53:56.551Z,20.60
2022-11-30T03:54:58.796Z,20.30
2022-11-30T03:56:04.090Z,20.35
2022-11-30T03:57:06.417Z,19.38
2022-11-30T03:58:08.872Z,20.40
2022-11-30T03:59:11.230Z,19.70
2022-11-30T04:00:14.298Z,18.77
2022-11-30T04:01:22.082Z,18.73
2022-11-30T04:02:24.387Z,19.02
2022-11-30T04:03:26.989Z,18.75
2022-11-30T04:04:29.345Z,19.17
2022-11-30T04:05:31.666Z,20.05
2022-11-30T04:06:34.281Z,18.17
2022-11-30T04:07:36.665Z,18.33
2022-11-30T04:08:39.564Z,18.27
2022-11-30T04:09:42.001Z,17.00
2022-11-30T04:10:47.894Z,18.45
2022-11-30T04:11:50.191Z,17.20
2022-11-30T04:12:52.511Z,17.52
2022-11-30T04:13:54.952Z,16.77
2022-11-30T04:14:57.222Z,16.25
2022-11-30T04:15:59.872Z,17.80
2022-11-30T04:17:02.238Z,18.15
2022-11-30T04:18:04.524Z,16.83
2022-11-30T04:19:06.840Z,17.02
2022-11-30T04:20:09.372Z,16.80
2022-11-30T04:21:11.711Z,17.02
2022-11-30T04:22:14.011Z,17.00
2022-11-30T04:23:16.386Z,16.80
2022-11-30T04:24:18.686Z,15.73
2022-11-30T04:25:20.975Z,14.35
2022-11-30T04:26:23.241Z,14.98
2022-11-30T04:27:25.753Z,17.42
2022-11-30T04:28:28.083Z,15.38
2022-11-30T04:29:30.377Z,15.90
2022-11-30T04:30:33.830Z,19.35
2022-11-30T04:31:36.179Z,19.52
2022-11-30T04:32:38.508Z,18.08
2022-11-30T04:33:40.976Z,17.50
2022-11-30T04:34:43.299Z,15.60
2022-11-30T04:35:50.163Z,16.67
2022-11-30T04:36:56.046Z,14.98
2022-11-30T04:38:02.281Z,15.73
2022-11-30T04:39:04.587Z,16.08
2022-11-30T04:40:07.693Z,15.55
2022-11-30T04:41:09.982Z,15.52
2022-11-30T04:42:12.240Z,15.25
2022-11-30T04:43:14.762Z,15.75
2022-11-30T04:44:17.061Z,15.82
2022-11-30T04:45:19.341Z,15.68
2022-11-30T04:46:21.735Z,14.68
2022-11-30T04:47:24.090Z,14.15
2022-11-30T04:48:26.445Z,14.20
2022-11-30T04:49:28.774Z,14.55
2022-11-30T04:50:31.393Z,15.13
2022-11-30T04:51:33.688Z,15.52
2022-11-30T04:52:36.259Z,14.23
2022-11-30T04:53:38.920Z,14.20
2022-11-30T04:54:41.214Z,13.77
2022-11-30T04:55:43.490Z,14.00
2022-11-30T04:56:45.784Z,13.40
2022-11-30T04:57:48.855Z,15.23
2022-11-30T04:58:51.176Z,14.55
2022-11-30T04:59:53.458Z,13.20
2022-11-30T05:00:55.888Z,14.50
2022-11-30T05:01:58.231Z,13.80
2022-11-30T05:03:00.598Z,16.13
2022-11-30T05:04:02.909Z,14.88
2022-11-30T05:05:05.783Z,14.02
2022-11-30T05:06:08.172Z,13.05
2022-11-30T05:07:10.596Z,14.23
2022-11-30T05:08:13.434Z,12.95
2022-11-30T05:09:15.770Z,13.52
2022-11-30T05:10:18.239Z,12.95
2022-11-30T05:11:20.556Z,13.32
2022-11-30T05:12:22.862Z,14.73
2022-11-30T05:13:26.348Z,13.70
2022-11-30T05:14:28.725Z,13.30
2022-11-30T05:15:31.702Z,13.50
2022-11-30T05:16:34.151Z,12.95
2022-11-30T05:17:36.485Z,12.40
2022-11-30T05:18:38.762Z,13.18
2022-11-30T05:19:41.040Z,12.35
2022-11-30T05:20:48.187Z,13.88
2022-11-30T05:21:50.498Z,12.18
2022-11-30T05:22:52.782Z,12.65
2022-11-30T05:23:55.109Z,12.73
2022-11-30T05:24:57.390Z,13.15
2022-11-30T05:26:02.438Z,12.40
2022-11-30T05:27:09.255Z,12.73
2022-11-30T05:28:16.285Z,12.95
2022-11-30T05:29:18.576Z,13.70
2022-11-30T05:30:20.914Z,13.13
2022-11-30T05:31:23.331Z,12.63
2022-11-30T05:32:25.684Z,12.35
2022-11-30T05:33:27.967Z,12.45
2022-11-30T05:34:30.300Z,11.60
2022-11-30T05:35:32.718Z,12.90
2022-11-30T05:36:35.127Z,13.07
2022-11-30T05:37:37.633Z,13.85
2022-11-30T05:38:39.994Z,13.45
2022-11-30T05:39:42.314Z,13.02
2022-11-30T05:40:44.618Z,12.55
2022-11-30T05:41:46.919Z,13.10
2022-11-30T05:42:55.645Z,14.27
2022-11-30T05:43:58.036Z,12.80
2022-11-30T05:45:00.364Z,12.27
2022-11-30T05:46:04.640Z,12.68
2022-11-30T05:47:07.011Z,10.80
2022-11-30T05:48:09.305Z,11.85
2022-11-30T05:49:11.597Z,11.85
2022-11-30T05:50:13.998Z,13.40
2022-11-30T05:51:18.188Z,12.73
2022-11-30T05:52:20.458Z,13.38
2022-11-30T05:53:22.878Z,11.85
2022-11-30T05:54:25.300Z,11.52
2022-11-30T05:55:28.943Z,11.35
2022-11-30T05:56:31.620Z,11.48
2022-11-30T05:57:38.369Z,11.55
2022-11-30T05:58:41.034Z,12.00
2022-11-30T05:59:43.295Z,10.98
2022-11-30T06:00:45.607Z,11.60
2022-11-30T06:01:47.950Z,11.40
2022-11-30T06:02:56.534Z,11.52
2022-11-30T06:03:58.925Z,11.70
2022-11-30T06:05:01.576Z,11.38
2022-11-30T06:06:04.034Z,11.95
2022-11-30T06:07:06.353Z,11.35
2022-11-30T06:08:08.676Z,11.82
2022-11-30T06:09:11.027Z,11.27
2022-11-30T06:10:13.386Z,11.30
2022-11-30T06:11:16.378Z,11.70
2022-11-30T06:12:18.782Z,10.93
2022-11-30T06:13:25.977Z,11.20
2022-11-30T06:14:31.058Z,11.05
2022-11-30T06:15:33.425Z,10.73
2022-11-30T06:16:37.450Z,10.98
2022-11-30T06:17:39.834Z,10.38
2022-11-30T06:18:42.115Z,11.00
2022-11-30T06:19:44.578Z,11.15
2022-11-30T06:20:46.867Z,11.18
2022-11-30T06:21:49.150Z,10.35
2022-11-30T06:22:51.449Z,11.20
2022-11-30T06:23:53.808Z,10.63
2022-11-30T06:24:56.280Z,10.38
2022-11-30T06:25:58.704Z,11.65
2022-11-30T06:27:00.974Z,10.88
2022-11-30T06:28:03.278Z,11.35
2022-11-30T06:29:05.533Z,10.57
2022-11-30T06:30:08.670Z,10.98
2022-11-30T06:31:11.316Z,10.48
2022-11-30T06:32:13.905Z,12.10
2022-11-30T06:33:17.307Z,11.52
2022-11-30T06:34:19.697Z,10.20
2022-11-30T06:35:21.991Z,10.90
2022-11-30T06:36:24.465Z,10.18
2022-11-30T06:37:27.197Z,10.45
2022-11-30T06:38:29.911Z,10.23
2022-11-30T06:40:04.341Z,9.73
2022-11-30T06:40:54.579Z,10.70
2022-11-30T06:41:57.055Z,11.68
2022-11-30T06:42:59.470Z,9.98
2022-11-30T06:44:01.843Z,10.45
2022-11-30T06:45:05.851Z,9.75
2022-11-30T06:46:08.527Z,19.02
2022-11-30T06:47:10.904Z,16.20
2022-11-30T06:48:14.261Z,12.65
2022-11-30T06:49:16.545Z,11.13
2022-11-30T06:50:18.862Z,13.75
2022-11-30T06:51:21.214Z,11.90
2022-11-30T06:52:23.545Z,11.13
2022-11-30T06:53:26.279Z,10.88
2022-11-30T06:54:28.630Z,10.10
2022-11-30T06:55:32.848Z,11.57
2022-11-30T06:56:35.188Z,10.00
2022-11-30T06:57:37.504Z,9.85
2022-11-30T06:58:40.633Z,10.27
2022-11-30T06:59:43.346Z,10.27
2022-11-30T07:00:45.875Z,10.20
2022-11-30T07:01:48.226Z,10.32
2022-11-30T07:02:50.497Z,9.57
2022-11-30T07:03:52.891Z,10.02
2022-11-30T07:04:55.227Z,12.35
2022-11-30T07:05:58.455Z,11.13
2022-11-30T07:07:00.745Z,12.10
2022-11-30T07:08:03.188Z,11.70
2022-11-30T07:09:06.098Z,11.40
2022-11-30T07:10:09.128Z,10.88
2022-11-30T07:11:12.286Z,12.50
2022-11-30T07:12:14.629Z,10.07
2022-11-30T07:13:18.542Z,8.10
2022-11-30T07:14:21.088Z,9.57
2022-11-30T07:15:23.418Z,9.90
2022-11-30T07:16:25.697Z,9.38
2022-11-30T07:17:28.083Z,9.77
2022-11-30T07:18:32.314Z,10.25
2022-11-30T07:19:35.253Z,10.13
2022-11-30T07:20:39.618Z,9.88
2022-11-30T07:21:42.033Z,10.10
2022-11-30T07:22:44.324Z,11.15
2022-11-30T07:24:05.417Z,9.45
2022-11-30T07:25:27.485Z,9.02
2022-11-30T07:26:29.861Z,10.10
2022-11-30T07:27:32.156Z,10.52
2022-11-30T07:28:39.109Z,26.20
2022-11-30T07:29:41.433Z,20.42
2022-11-30T07:30:43.693Z,20.05
2022-11-30T07:31:52.077Z,15.10
2022-11-30T07:33:19.366Z,11.95
2022-11-30T07:34:22.325Z,12.48
2022-11-30T07:35:24.804Z,10.05
2022-11-30T07:36:27.880Z,9.93
2022-11-30T07:37:54.909Z,10.77
2022-11-30T07:38:57.593Z,10.02
2022-11-30T07:39:59.986Z,10.65
2022-11-30T07:41:02.326Z,10.48
2022-11-30T07:42:04.666Z,10.00
2022-11-30T07:43:07.572Z,10.20
2022-11-30T07:44:11.468Z,10.63
2022-11-30T07:45:13.821Z,10.07
2022-11-30T07:46:17.611Z,10.18
2022-11-30T07:47:19.953Z,10.57
2022-11-30T07:48:22.743Z,10.25
2022-11-30T07:49:25.021Z,10.65
2022-11-30T07:50:27.324Z,9.95
2022-11-30T07:51:29.628Z,10.60
2022-11-30T07:52:32.015Z,10.32
2022-11-30T07:53:34.778Z,9.70
2022-11-30T07:54:37.067Z,9.80
2022-11-30T07:55:39.397Z,10.10
2022-11-30T07:56:41.673Z,11.52
2022-11-30T07:57:43.918Z,10.70
2022-11-30T07:58:46.973Z,9.75
2022-11-30T07:59:49.778Z,11.23
2022-11-30T08:00:52.674Z,10.18
2022-11-30T08:01:55.458Z,7.82
2022-11-30T08:02:58.122Z,8.32
2022-11-30T08:04:00.945Z,8.50
2022-11-30T08:05:03.527Z,8.45
2022-11-30T08:06:11.647Z,7.65
2022-11-30T08:07:17.367Z,7.63
2022-11-30T08:08:19.942Z,8.25
2022-11-30T08:09:22.765Z,8.95
2022-11-30T08:10:25.463Z,18.10
2022-11-30T08:11:30.633Z,30.52
2022-11-30T08:12:33.058Z,23.48
2022-11-30T08:13:35.690Z,18.60
2022-11-30T08:14:56.907Z,18.92
2022-11-30T08:16:05.916Z,11.93
2022-11-30T08:17:09.407Z,10.82
2022-11-30T08:18:11.819Z,11.63
2022-11-30T08:19:14.292Z,9.68
2022-11-30T08:20:16.870Z,9.02
2022-11-30T08:21:20.941Z,9.13
2022-11-30T08:22:23.441Z,10.20
2022-11-30T08:23:28.432Z,9.98
2022-11-30T08:24:30.953Z,9.40
2022-11-30T08:25:35.215Z,9.70
2022-11-30T08:26:37.639Z,9.27
2022-11-30T08:27:40.077Z,8.75
2022-11-30T08:28:43.823Z,8.57
2022-11-30T08:29:46.373Z,8.65
2022-11-30T08:30:48.845Z,8.35
2022-11-30T08:31:51.384Z,8.15
2022-11-30T08:32:54.501Z,8.50
2022-11-30T08:34:09.958Z,9.65
2022-11-30T08:35:12.625Z,8.23
2022-11-30T08:36:17.186Z,8.98
2022-11-30T08:37:19.678Z,21.25
2022-11-30T08:38:22.472Z,26.15
2022-11-30T08:39:27.825Z,26.05
2022-11-30T08:40:30.231Z,20.95
2022-11-30T08:41:35.000Z,21.77
2022-11-30T08:42:37.469Z,15.30
2022-11-30T08:43:40.235Z,12.93
2022-11-30T08:44:42.592Z,11.95
2022-11-30T08:45:45.147Z,12.90
2022-11-30T08:46:52.132Z,11.57
2022-11-30T08:47:55.514Z,12.63
2022-11-30T08:49:19.877Z,12.60
2022-11-30T08:50:21.012Z,11.70
2022-11-30T08:51:23.593Z,12.38
2022-11-30T08:52:27.260Z,11.88
2022-11-30T08:53:29.698Z,12.48
2022-11-30T08:54:31.992Z,11.63
2022-11-30T08:55:34.409Z,12.75
2022-11-30T08:56:36.743Z,12.10
2022-11-30T08:57:39.217Z,12.85
2022-11-30T08:58:42.099Z,12.07
2022-11-30T08:59:44.882Z,12.02
2022-11-30T09:00:47.263Z,11.70
2022-11-30T09:01:49.595Z,12.05
2022-11-30T09:02:52.044Z,11.48
2022-11-30T09:03:57.070Z,11.85
2022-11-30T09:04:59.463Z,11.82
2022-11-30T09:06:15.150Z,10.35
2022-11-30T09:07:17.849Z,12.50
2022-11-30T09:08:20.344Z,11.25
2022-11-30T09:09:22.781Z,11.07
2022-11-30T09:10:25.093Z,11.15
2022-11-30T09:11:30.837Z,11.38
2022-11-30T09:12:37.730Z,10.98
2022-11-30T09:13:42.091Z,10.60
2022-11-30T09:14:45.558Z,10.70
2022-11-30T09:15:55.696Z,10.30
2022-11-30T09:16:58.171Z,10.48
2022-11-30T09:18:00.542Z,11.27
2022-11-30T09:19:03.528Z,10.27
2022-11-30T09:20:07.625Z,11.13
2022-11-30T09:21:12.905Z,10.55
2022-11-30T09:22:15.372Z,11.18
2022-11-30T09:23:17.755Z,11.13
2022-11-30T09:24:20.986Z,11.27
2022-11-30T09:25:23.323Z,10.98
2022-11-30T09:26:25.888Z,11.43
2022-11-30T09:27:31.038Z,9.93
2022-11-30T09:28:33.756Z,10.55
2022-11-30T09:29:36.658Z,10.80
2022-11-30T09:30:39.063Z,9.20
2022-11-30T09:31:41.474Z,9.07
2022-11-30T09:32:43.822Z,8.63
2022-11-30T09:33:47.127Z,9.02
2022-11-30T09:34:50.831Z,8.70
2022-11-30T09:36:01.418Z,9.48
2022-11-30T09:37:03.802Z,9.57
2022-11-30T09:38:06.198Z,8.90
2022-11-30T09:39:10.672Z,10.07
2022-11-30T09:40:14.165Z,8.85
2022-11-30T09:41:34.559Z,9.00
2022-11-30T09:43:04.432Z,8.55
2022-11-30T09:44:09.559Z,8.52
2022-11-30T09:45:28.558Z,7.43
2022-11-30T09:46:56.657Z,7.03
2022-11-30T09:48:07.614Z,6.50
2022-11-30T09:49:18.768Z,7.50
2022-11-30T09:50:24.217Z,8.00
2022-11-30T09:51:45.794Z,9.23
2022-11-30T09:54:08.832Z,9.70
2022-11-30T09:55:17.578Z,9.38
2022-11-30T09:56:30.205Z,9.52
2022-11-30T09:57:41.228Z,8.63
2022-11-30T09:58:55.587Z,8.68
2022-11-30T10:00:10.452Z,9.25
2022-11-30T10:01:20.638Z,8.27
2022-11-30T10:02:30.664Z,8.20
2022-11-30T10:03:33.865Z,7.82
2022-11-30T10:04:36.328Z,7.10
2022-11-30T10:05:58.289Z,8.63
2022-11-30T10:07:06.449Z,7.53
2022-11-30T10:08:46.029Z,8.23
2022-11-30T10:10:23.644Z,8.25
2022-11-30T10:11:38.789Z,8.50
2022-11-30T10:13:02.791Z,8.15
2022-11-30T10:14:26.134Z,8.50
2022-11-30T10:16:02.213Z,8.27
2022-11-30T10:17:33.222Z,8.93
2022-11-30T10:19:13.513Z,7.47
2022-11-30T10:20:38.835Z,7.50
2022-11-30T10:21:44.239Z,8.13
2022-11-30T10:23:10.874Z,7.63
2022-11-30T10:24:29.516Z,7.25
2022-11-30T10:25:55.489Z,7.15
2022-11-30T10:26:58.811Z,7.13
2022-11-30T10:29:49.575Z,7.20
2022-11-30T10:30:51.888Z,6.63
2022-11-30T10:31:58.593Z,7.47
2022-11-30T10:33:10.153Z,6.75
2022-11-30T10:34:21.332Z,7.80
2022-11-30T10:35:34.815Z,7.50
2022-11-30T10:36:41.743Z,7.88
2022-11-30T10:37:45.532Z,8.32
2022-11-30T10:38:55.481Z,7.75
2022-11-30T10:40:00.224Z,6.55
2022-11-30T10:41:17.312Z,6.18
2022-11-30T10:42:28.193Z,6.93
2022-11-30T10:43:46.764Z,6.53
2022-11-30T10:45:03.354Z,6.53
2022-11-30T10:46:06.274Z,6.28
2022-11-30T10:47:20.183Z,6.45
2022-11-30T10:48:37.542Z,6.10
2022-11-30T10:49:45.265Z,6.80
2022-11-30T10:50:47.963Z,6.50
2022-11-30T10:51:58.421Z,7.65
2022-11-30T10:53:01.853Z,6.38
2022-11-30T10:54:13.889Z,6.55
2022-11-30T10:55:22.531Z,7.15
2022-11-30T10:56:25.691Z,6.82
2022-11-30T10:57:31.926Z,5.85
2022-11-30T10:59:02.253Z,6.10
2022-11-30T11:00:06.526Z,6.70
2022-11-30T11:01:28.404Z,5.28
2022-11-30T11:02:38.626Z,5.95
2022-11-30T11:03:41.005Z,5.90
2022-11-30T11:04:43.500Z,6.15
2022-11-30T11:05:46.287Z,7.63
2022-11-30T11:07:13.723Z,7.00
2022-11-30T11:08:25.350Z,6.65
2022-11-30T11:09:30.558Z,6.93
2022-11-30T11:10:43.338Z,7.63
2022-11-30T11:11:45.770Z,7.55
2022-11-30T11:12:54.120Z,6.85
2022-11-30T11:14:31.355Z,6.43
2022-11-30T11:15:37.436Z,5.88
2022-11-30T11:17:18.280Z,6.68
2022-11-30T11:18:26.522Z,6.60
2022-11-30T11:19:40.707Z,6.65
2022-11-30T11:20:43.811Z,6.63
2022-11-30T11:21:49.753Z,6.55
2022-11-30T11:22:52.306Z,5.85
2022-11-30T11:23:56.898Z,7.10
2022-11-30T11:25:08.089Z,6.88
2022-11-30T11:26:28.006Z,6.47
2022-11-30T11:27:32.795Z,6.93
2022-11-30T11:28:37.061Z,7.97
2022-11-30T11:29:39.380Z,7.28
2022-11-30T11:30:41.876Z,7.30
2022-11-30T11:31:48.942Z,6.15
2022-11-30T11:33:02.775Z,8.07
2022-11-30T11:34:22.465Z,9.90
2022-11-30T11:35:46.346Z,13.40
2022-11-30T11:37:24.311Z,10.63
2022-11-30T11:38:46.485Z,7.13
2022-11-30T11:40:05.874Z,6.72
2022-11-30T11:41:28.001Z,6.00
2022-11-30T11:42:34.859Z,5.60
2022-11-30T11:44:21.423Z,6.28
2022-11-30T11:45:30.092Z,5.43
2022-11-30T11:46:34.598Z,5.25
2022-11-30T11:47:43.572Z,5.45
2022-11-30T11:48:55.535Z,5.88
2022-11-30T11:50:07.404Z,5.53
2022-11-30T11:51:11.829Z,5.25
2022-11-30T11:52:18.342Z,5.22
2022-11-30T11:53:24.281Z,5.30
2022-11-30T11:54:44.871Z,6.75
2022-11-30T11:55:47.304Z,14.88
2022-11-30T11:56:49.932Z,21.58
2022-11-30T11:58:00.000Z,15.57
2022-11-30T11:59:18.010Z,13.07
2022-11-30T12:00:24.818Z,11.90
2022-11-30T12:01:42.159Z,10.90
2022-11-30T12:03:08.583Z,8.35
2022-11-30T12:04:36.048Z,6.93
2022-11-30T12:06:08.571Z,6.30
2022-11-30T12:07:36.826Z,5.10
2022-11-30T12:09:03.660Z,5.40
2022-11-30T12:11:53.738Z,4.93
2022-11-30T12:12:56.448Z,5.60
2022-11-30T12:13:58.755Z,5.65
2022-11-30T12:15:02.360Z,4.85
2022-11-30T12:16:20.155Z,5.45
2022-11-30T12:17:37.220Z,5.38
2022-11-30T12:18:45.121Z,5.10
2022-11-30T12:19:57.794Z,5.18
2022-11-30T12:21:13.375Z,4.85
2022-11-30T12:22:46.370Z,5.18
2022-11-30T12:24:02.563Z,4.50
2022-11-30T12:25:23.535Z,4.50
2022-11-30T12:26:34.842Z,4.80
2022-11-30T12:29:22.264Z,4.53
2022-11-30T12:30:38.849Z,4.15
2022-11-30T12:32:12.935Z,4.80
2022-11-30T12:33:33.659Z,5.82
2022-11-30T12:35:01.442Z,5.43
2022-11-30T12:36:44.549Z,5.22
2022-11-30T12:38:05.691Z,5.47
2022-11-30T12:39:29.669Z,5.35
2022-11-30T12:40:52.978Z,4.85
2022-11-30T12:42:04.864Z,5.20
2022-11-30T12:43:48.186Z,4.63
2022-11-30T12:45:35.004Z,5.45
2022-11-30T12:46:43.101Z,5.28
2022-11-30T12:48:06.305Z,4.47
2022-11-30T12:49:36.924Z,4.80
2022-11-30T12:50:55.216Z,5.18
2022-11-30T12:52:30.546Z,4.57
2022-11-30T12:53:41.700Z,4.80
2022-11-30T12:55:21.679Z,5.07
2022-11-30T12:56:35.516Z,5.05
2022-11-30T12:57:48.535Z,5.10
2022-11-30T12:59:03.199Z,4.13
2022-11-30T13:00:21.209Z,4.40
2022-11-30T13:01:26.515Z,5.00
2022-11-30T13:02:57.895Z,4.65
2022-11-30T13:04:25.351Z,5.10
2022-11-30T13:05:39.725Z,4.93
2022-11-30T13:06:51.738Z,4.65
2022-11-30T13:08:43.152Z,4.95
2022-11-30T13:09:50.489Z,4.90
2022-11-30T13:11:02.294Z,5.15
2022-11-30T13:12:12.308Z,5.63
2022-11-30T13:13:29.963Z,5.53
2022-11-30T13:14:34.433Z,4.93
2022-11-30T13:15:38.218Z,4.93
2022-11-30T13:16:42.184Z,4.57
2022-11-30T13:17:45.698Z,4.88
2022-11-30T13:18:50.401Z,5.00
2022-11-30T13:20:08.494Z,5.38
2022-11-30T13:21:25.507Z,94.10
2022-11-30T13:22:36.629Z,64.95
2022-11-30T13:23:49.431Z,83.80
2022-11-30T13:25:01.048Z,58.13
2022-11-30T13:26:31.115Z,50.95
2022-11-30T13:27:44.321Z,37.75
2022-11-30T13:29:10.781Z,26.85
2022-11-30T13:30:39.382Z,21.70
2022-11-30T13:32:05.593Z,18.30
2022-11-30T13:33:45.446Z,20.85
2022-11-30T13:34:47.950Z,18.77
2022-11-30T13:35:54.612Z,19.10
2022-11-30T13:37:01.661Z,19.08
2022-11-30T13:39:48.387Z,17.13
2022-11-30T13:41:00.766Z,16.30
2022-11-30T13:42:06.175Z,16.02
2022-11-30T13:43:18.812Z,16.33
2022-11-30T13:44:43.925Z,16.25
2022-11-30T13:45:46.690Z,16.27
2022-11-30T13:46:53.318Z,16.08
2022-11-30T13:47:57.397Z,15.23
2022-11-30T13:49:37.922Z,15.10
2022-11-30T13:50:40.779Z,14.88
2022-11-30T13:51:43.316Z,15.25
2022-11-30T13:53:01.599Z,14.27
2022-11-30T13:54:41.221Z,14.32
2022-11-30T13:55:55.602Z,13.85
2022-11-30T13:56:57.870Z,14.27
2022-11-30T13:58:00.102Z,14.13
2022-11-30T13:59:24.030Z,13.88
2022-11-30T14:00:29.872Z,13.02
2022-11-30T14:01:32.385Z,13.00
2022-11-30T14:02:42.067Z,13.38
2022-11-30T14:03:49.023Z,14.80
2022-11-30T14:04:53.829Z,13.10
2022-11-30T14:06:01.013Z,14.25
2022-11-30T14:07:03.456Z,12.95
2022-11-30T14:08:05.833Z,13.43
2022-11-30T14:09:37.193Z,13.07
2022-11-30T14:10:49.616Z,13.90
2022-11-30T14:11:52.002Z,13.48
2022-11-30T14:13:10.745Z,12.48
2022-11-30T14:14:46.575Z,12.85
2022-11-30T14:15:54.294Z,12.95
2022-11-30T14:16:57.994Z,12.07
2022-11-30T14:18:05.221Z,12.65
2022-11-30T14:19:09.569Z,14.07
2022-11-30T14:20:18.766Z,13.73
2022-11-30T14:21:31.267Z,13.35
2022-11-30T14:22:33.731Z,13.63
2022-11-30T14:23:56.064Z,14.18
2022-11-30T14:24:58.733Z,15.57
2022-11-30T14:26:14.723Z,16.90
2022-11-30T14:27:22.411Z,36.10
2022-11-30T14:28:32.963Z,36.20
2022-11-30T14:29:39.432Z,30.63
2022-11-30T14:30:43.879Z,26.10
2022-11-30T14:31:59.555Z,23.40
2022-11-30T14:33:14.141Z,22.48
2022-11-30T14:34:27.073Z,18.45
2022-11-30T14:35:31.007Z,17.25
2022-11-30T14:36:41.641Z,18.38
2022-11-30T14:37:53.403Z,18.15
2022-11-30T14:38:55.864Z,17.63
2022-11-30T14:40:03.620Z,18.80
2022-11-30T14:41:06.202Z,18.40
2022-11-30T14:42:35.353Z,18.83
2022-11-30T14:43:37.692Z,17.05
2022-11-30T14:44:40.735Z,16.42
2022-11-30T14:45:43.167Z,14.68
2022-11-30T14:46:45.790Z,17.40
2022-11-30T14:47:53.736Z,14.52
2022-11-30T14:49:22.049Z,15.23